createdAt,value
2017-10-31T00:01:16.284Z,16.08
2017-10-31T00:03:44.424Z,11.82
2017-10-31T00:06:12.603Z,9.65
2017-10-31T00:08:40.738Z,9.90
2017-10-31T00:11:08.908Z,9.57
2017-10-31T00:13:37.033Z,9.70
2017-10-31T00:16:05.182Z,11.00
2017-10-31T00:18:33.356Z,11.93
2017-10-31T00:21:02.269Z,8.63
2017-10-31T00:23:30.405Z,13.27
2017-10-31T00:25:59.332Z,11.52
2017-10-31T00:28:27.494Z,13.15
2017-10-31T00:30:55.621Z,11.15
2017-10-31T00:33:23.757Z,7.70
2017-10-31T00:35:52.005Z,11.50
2017-10-31T00:38:20.890Z,9.40
2017-10-31T00:40:49.860Z,15.32
2017-10-31T00:43:17.975Z,9.65
2017-10-31T00:45:46.105Z,8.10
2017-10-31T00:48:14.269Z,7.72
2017-10-31T00:50:42.533Z,10.13
2017-10-31T00:53:10.660Z,11.98
2017-10-31T00:55:38.797Z,9.75
2017-10-31T00:58:06.942Z,15.27
2017-10-31T01:00:35.088Z,10.48
2017-10-31T01:03:03.248Z,10.00
2017-10-31T01:05:32.140Z,10.68
2017-10-31T01:08:00.432Z,12.23
2017-10-31T01:10:28.553Z,11.10
2017-10-31T01:12:56.723Z,11.10
2017-10-31T01:15:24.880Z,10.38
2017-10-31T01:17:53.018Z,11.55
2017-10-31T01:20:21.190Z,12.48
2017-10-31T01:22:50.077Z,10.95
2017-10-31T01:25:18.326Z,10.15
2017-10-31T01:27:46.456Z,19.62
2017-10-31T01:30:14.595Z,14.98
2017-10-31T01:32:42.769Z,13.18
2017-10-31T01:35:10.906Z,14.23
2017-10-31T01:37:39.041Z,15.23
2017-10-31T01:40:07.208Z,17.87
2017-10-31T01:42:35.347Z,16.30
2017-10-31T01:45:04.272Z,10.25
2017-10-31T01:47:32.413Z,11.68
2017-10-31T01:50:00.546Z,11.80
2017-10-31T01:52:28.800Z,15.68
2017-10-31T01:54:56.945Z,12.43
2017-10-31T01:57:25.074Z,9.75
2017-10-31T01:59:53.220Z,13.00
2017-10-31T02:02:21.357Z,16.08
2017-10-31T02:04:50.277Z,12.37
2017-10-31T02:07:18.411Z,13.82
2017-10-31T02:09:46.662Z,11.98
2017-10-31T02:12:14.797Z,9.30
2017-10-31T02:14:42.921Z,14.15
2017-10-31T02:17:11.126Z,10.75
2017-10-31T02:19:40.016Z,9.85
2017-10-31T02:22:08.168Z,11.68
2017-10-31T02:24:36.297Z,13.05
2017-10-31T02:27:04.453Z,12.65
2017-10-31T02:29:32.599Z,11.32
2017-10-31T02:32:00.717Z,11.00
2017-10-31T02:34:28.957Z,9.50
2017-10-31T02:36:57.124Z,14.85
2017-10-31T02:39:25.252Z,13.65
2017-10-31T02:41:53.377Z,9.73
2017-10-31T02:44:21.610Z,9.90
2017-10-31T02:46:49.744Z,10.82
2017-10-31T02:49:17.901Z,10.23
2017-10-31T02:51:46.022Z,9.88
2017-10-31T02:54:14.174Z,17.05
2017-10-31T02:56:42.369Z,11.75
2017-10-31T02:59:10.503Z,11.45
2017-10-31T03:01:38.813Z,11.43
2017-10-31T03:04:06.948Z,11.30
2017-10-31T03:06:35.103Z,10.23
2017-10-31T03:09:03.998Z,12.55
2017-10-31T03:11:32.925Z,9.15
2017-10-31T03:14:01.072Z,13.38
2017-10-31T03:16:29.201Z,10.32
2017-10-31T03:18:57.520Z,10.65
2017-10-31T03:21:25.654Z,16.10
2017-10-31T03:23:53.804Z,11.07
2017-10-31T03:26:21.938Z,8.95
2017-10-31T03:28:50.086Z,13.02
2017-10-31T03:31:18.239Z,10.07
2017-10-31T03:33:46.537Z,10.13
2017-10-31T03:36:15.452Z,9.30
2017-10-31T03:38:43.591Z,10.98
2017-10-31T03:41:11.765Z,9.05
2017-10-31T03:43:39.886Z,10.52
2017-10-31T03:46:08.045Z,15.70
2017-10-31T03:48:36.183Z,8.90
2017-10-31T03:51:04.297Z,9.43
2017-10-31T03:53:32.600Z,13.45
2017-10-31T03:56:00.788Z,11.48
2017-10-31T03:58:29.043Z,10.57
2017-10-31T04:00:57.169Z,14.48
2017-10-31T04:03:26.062Z,8.00
2017-10-31T04:05:54.990Z,8.27
2017-10-31T04:08:23.141Z,12.37
2017-10-31T04:10:52.224Z,10.88
2017-10-31T04:13:21.124Z,12.05
2017-10-31T04:15:50.028Z,12.82
2017-10-31T04:18:18.178Z,9.77
2017-10-31T04:20:47.084Z,11.45
2017-10-31T04:23:15.244Z,8.95
2017-10-31T04:25:44.136Z,12.32
2017-10-31T04:28:13.216Z,8.00
2017-10-31T04:30:41.341Z,11.55
2017-10-31T04:33:09.470Z,9.75
2017-10-31T04:35:38.382Z,7.32
2017-10-31T04:38:06.505Z,9.55
2017-10-31T04:40:34.673Z,11.80
2017-10-31T04:43:02.801Z,10.30
2017-10-31T04:45:31.070Z,8.30
2017-10-31T04:47:59.191Z,12.02
2017-10-31T04:50:27.323Z,8.10
2017-10-31T04:52:55.469Z,7.75
2017-10-31T04:55:23.600Z,17.33
2017-10-31T04:57:51.766Z,14.32
2017-10-31T05:00:19.890Z,11.40
2017-10-31T05:02:48.021Z,11.45
2017-10-31T05:05:16.292Z,9.65
2017-10-31T05:07:44.429Z,15.55
2017-10-31T05:10:12.580Z,12.95
2017-10-31T05:12:40.718Z,10.60
2017-10-31T05:15:08.873Z,11.70
2017-10-31T05:17:37.005Z,10.38
2017-10-31T05:20:05.148Z,8.85
2017-10-31T05:22:33.424Z,12.05
2017-10-31T05:25:01.582Z,12.88
2017-10-31T05:27:29.841Z,11.40
2017-10-31T05:29:57.973Z,10.25
2017-10-31T05:32:26.117Z,10.10
2017-10-31T05:34:54.264Z,12.25
2017-10-31T05:37:22.399Z,11.77
2017-10-31T05:39:51.446Z,15.38
2017-10-31T05:42:19.568Z,9.43
2017-10-31T05:44:48.461Z,8.55
2017-10-31T05:47:17.384Z,12.88
2017-10-31T05:49:45.517Z,10.15
2017-10-31T05:52:14.445Z,13.57
2017-10-31T05:54:42.572Z,9.93
2017-10-31T05:57:10.699Z,9.18
2017-10-31T05:59:38.876Z,11.02
2017-10-31T06:02:07.024Z,16.20
2017-10-31T06:04:35.189Z,11.20
2017-10-31T06:07:04.080Z,10.23
2017-10-31T06:09:32.993Z,9.38
2017-10-31T06:12:01.125Z,17.25
2017-10-31T06:17:10.548Z,10.40
2017-10-31T06:19:38.711Z,8.13
2017-10-31T06:22:07.196Z,13.13
2017-10-31T06:24:35.301Z,12.07
2017-10-31T06:27:03.461Z,9.32
2017-10-31T06:29:31.588Z,8.55
2017-10-31T06:31:59.849Z,10.48
2017-10-31T06:34:27.989Z,10.93
2017-10-31T06:36:56.178Z,12.98
2017-10-31T06:39:25.077Z,10.88
2017-10-31T06:41:53.981Z,13.32
2017-10-31T06:44:22.889Z,10.55
2017-10-31T06:46:51.783Z,12.40
2017-10-31T06:49:20.701Z,12.40
2017-10-31T06:51:48.845Z,16.77
2017-10-31T06:54:17.109Z,15.40
2017-10-31T06:56:45.273Z,10.88
2017-10-31T06:59:13.421Z,20.83
2017-10-31T07:01:41.581Z,12.82
2017-10-31T07:04:09.718Z,12.65
2017-10-31T07:06:37.842Z,12.75
2017-10-31T07:09:05.997Z,10.90
2017-10-31T07:11:34.148Z,13.30
2017-10-31T07:14:02.409Z,13.95
2017-10-31T07:16:30.561Z,14.95
2017-10-31T07:18:59.449Z,14.35
2017-10-31T07:21:27.616Z,12.70
2017-10-31T07:23:56.533Z,13.25
2017-10-31T07:26:24.655Z,14.73
2017-10-31T07:28:52.816Z,13.38
2017-10-31T07:31:21.077Z,14.25
2017-10-31T07:33:49.241Z,12.88
2017-10-31T07:36:17.373Z,12.32
2017-10-31T07:38:45.547Z,13.65
2017-10-31T07:41:14.456Z,13.90
2017-10-31T07:43:42.619Z,13.30
2017-10-31T07:46:10.781Z,13.52
2017-10-31T07:48:39.797Z,15.63
2017-10-31T07:51:07.940Z,21.45
2017-10-31T07:53:36.101Z,14.23
2017-10-31T07:56:04.251Z,15.77
2017-10-31T07:58:32.390Z,14.65
2017-10-31T08:01:00.572Z,14.68
2017-10-31T08:03:28.715Z,11.90
2017-10-31T08:05:57.662Z,19.37
2017-10-31T08:08:25.807Z,14.93
2017-10-31T08:10:53.937Z,17.90
2017-10-31T08:13:22.097Z,23.33
2017-10-31T08:15:50.232Z,17.40
2017-10-31T08:18:19.165Z,19.83
2017-10-31T08:20:48.104Z,19.33
2017-10-31T08:23:16.380Z,17.10
2017-10-31T08:25:44.526Z,20.42
2017-10-31T08:28:13.428Z,18.37
2017-10-31T08:30:42.353Z,18.37
2017-10-31T08:33:10.497Z,18.37
2017-10-31T08:35:38.670Z,17.58
2017-10-31T08:38:06.805Z,20.10
2017-10-31T08:40:34.958Z,21.37
2017-10-31T08:43:03.245Z,19.85
2017-10-31T08:45:31.375Z,19.67
2017-10-31T08:47:59.537Z,18.80
2017-10-31T08:50:28.437Z,17.40
2017-10-31T08:52:56.633Z,18.02
2017-10-31T08:55:24.766Z,20.42
2017-10-31T08:58:00.306Z,18.48
2017-10-31T09:00:29.246Z,19.70
2017-10-31T09:02:57.380Z,17.50
2017-10-31T09:05:26.312Z,22.90
2017-10-31T09:07:54.458Z,18.10
2017-10-31T09:10:22.715Z,21.83
2017-10-31T09:12:51.621Z,16.62
2017-10-31T09:15:20.561Z,14.70
2017-10-31T09:17:48.712Z,16.77
2017-10-31T09:20:16.891Z,20.37
2017-10-31T09:22:45.062Z,23.75
2017-10-31T09:25:13.216Z,18.15
2017-10-31T09:27:41.370Z,20.48
2017-10-31T09:30:10.353Z,18.50
2017-10-31T09:32:38.502Z,17.60
2017-10-31T09:35:06.668Z,15.80
2017-10-31T09:37:34.816Z,18.40
2017-10-31T09:40:02.961Z,16.15
2017-10-31T09:42:32.003Z,16.48
2017-10-31T09:45:00.146Z,26.10
2017-10-31T09:47:28.272Z,17.33
2017-10-31T09:49:56.460Z,22.55
2017-10-31T09:52:25.384Z,23.45
2017-10-31T09:54:53.553Z,19.60
2017-10-31T09:57:21.721Z,16.65
2017-10-31T09:59:50.613Z,18.00
2017-10-31T10:02:18.786Z,17.50
2017-10-31T10:04:46.919Z,21.05
2017-10-31T10:07:15.185Z,15.77
2017-10-31T10:09:43.322Z,15.25
2017-10-31T10:12:12.242Z,17.08
2017-10-31T10:14:40.411Z,17.92
2017-10-31T10:17:08.561Z,17.70
2017-10-31T10:19:36.815Z,26.55
2017-10-31T10:22:04.962Z,16.95
2017-10-31T10:24:33.123Z,18.17
2017-10-31T10:27:01.266Z,18.23
2017-10-31T10:29:29.395Z,21.92
2017-10-31T10:31:58.348Z,21.40
2017-10-31T10:34:26.483Z,19.17
2017-10-31T10:36:54.719Z,20.23
2017-10-31T10:39:22.867Z,15.25
2017-10-31T10:41:51.169Z,27.75
2017-10-31T10:44:19.327Z,18.52
2017-10-31T10:46:47.503Z,27.40
2017-10-31T10:49:15.657Z,17.10
2017-10-31T10:51:43.804Z,19.27
2017-10-31T10:54:12.095Z,17.83
2017-10-31T10:56:40.270Z,24.60
2017-10-31T10:59:08.401Z,26.65
2017-10-31T11:01:37.349Z,18.35
2017-10-31T11:04:06.254Z,21.35
2017-10-31T11:06:34.432Z,22.33
2017-10-31T11:09:02.590Z,16.98
2017-10-31T11:11:30.872Z,21.65
2017-10-31T11:13:59.034Z,17.40
2017-10-31T11:16:27.189Z,20.25
2017-10-31T11:18:55.353Z,17.90
2017-10-31T11:21:23.499Z,17.45
2017-10-31T11:23:54.079Z,15.60
2017-10-31T11:26:31.187Z,15.85
2017-10-31T11:29:06.428Z,12.98
2017-10-31T11:31:37.465Z,13.85
2017-10-31T11:34:06.201Z,16.25
2017-10-31T11:36:34.927Z,18.73
2017-10-31T11:39:03.082Z,15.75
2017-10-31T11:41:31.229Z,15.15
2017-10-31T11:43:59.375Z,14.20
2017-10-31T11:46:27.520Z,10.90
2017-10-31T11:48:55.716Z,12.85
2017-10-31T11:51:23.898Z,12.35
2017-10-31T11:53:52.054Z,16.20
2017-10-31T11:56:20.241Z,15.13
2017-10-31T11:58:48.410Z,18.02
2017-10-31T12:01:16.582Z,14.52
2017-10-31T12:03:44.724Z,17.83
2017-10-31T12:06:12.914Z,18.95
2017-10-31T12:08:41.069Z,15.07
2017-10-31T12:11:09.219Z,15.38
2017-10-31T12:13:37.407Z,16.37
2017-10-31T12:16:06.319Z,17.58
2017-10-31T12:18:34.478Z,13.70
2017-10-31T12:21:02.631Z,17.10
2017-10-31T12:23:30.784Z,15.50
2017-10-31T12:25:59.841Z,13.27
2017-10-31T12:28:28.002Z,22.62
2017-10-31T12:30:56.213Z,15.30
2017-10-31T12:33:24.361Z,15.25
2017-10-31T12:35:52.521Z,14.35
2017-10-31T12:38:20.681Z,13.20
2017-10-31T12:40:48.848Z,16.40
2017-10-31T12:43:17.030Z,20.15
2017-10-31T12:45:45.195Z,14.40
2017-10-31T12:48:13.449Z,14.18
2017-10-31T12:50:41.599Z,16.92
2017-10-31T12:53:09.750Z,14.60
2017-10-31T12:55:38.049Z,27.62
2017-10-31T12:58:06.202Z,19.52
2017-10-31T13:00:34.346Z,10.68
2017-10-31T13:03:02.522Z,14.05
2017-10-31T13:05:30.668Z,13.62
2017-10-31T13:07:58.808Z,17.27
2017-10-31T13:10:26.984Z,15.60
2017-10-31T13:12:55.108Z,17.42
2017-10-31T13:15:23.369Z,12.73
2017-10-31T13:17:51.545Z,11.38
2017-10-31T13:20:19.692Z,18.12
2017-10-31T13:22:47.857Z,13.10
2017-10-31T13:25:16.013Z,15.27
2017-10-31T13:27:44.208Z,9.10
2017-10-31T13:30:12.362Z,6.15
2017-10-31T13:32:40.538Z,8.43
2017-10-31T13:35:08.688Z,9.10
2017-10-31T13:37:36.846Z,12.95
2017-10-31T13:40:05.004Z,12.55
2017-10-31T13:42:33.276Z,10.68
2017-10-31T13:45:02.230Z,10.20
2017-10-31T13:47:30.459Z,13.52
2017-10-31T13:49:58.644Z,20.23
2017-10-31T13:52:26.820Z,8.80
2017-10-31T13:54:55.060Z,14.35
2017-10-31T13:57:23.989Z,14.00
2017-10-31T13:59:52.218Z,11.35
2017-10-31T14:02:21.166Z,13.20
2017-10-31T14:04:49.350Z,18.85
2017-10-31T14:07:17.559Z,10.38
2017-10-31T14:09:46.509Z,13.57
2017-10-31T14:12:14.702Z,8.50
2017-10-31T14:14:42.886Z,12.32
2017-10-31T14:17:11.069Z,9.10
2017-10-31T14:19:39.341Z,8.48
2017-10-31T14:22:07.502Z,11.00
2017-10-31T14:24:35.685Z,8.80
2017-10-31T14:27:03.841Z,7.40
2017-10-31T14:29:32.041Z,8.88
2017-10-31T14:32:00.236Z,12.48
2017-10-31T14:34:28.562Z,13.55
2017-10-31T14:36:56.757Z,17.05
2017-10-31T14:39:24.941Z,14.25
2017-10-31T14:41:53.154Z,12.98
2017-10-31T14:44:21.317Z,11.85
2017-10-31T14:46:49.510Z,11.93
2017-10-31T14:49:17.709Z,13.62
2017-10-31T14:51:46.003Z,9.95
2017-10-31T14:54:14.166Z,13.57
2017-10-31T14:56:42.434Z,18.15
2017-10-31T14:59:10.682Z,16.05
2017-10-31T15:01:38.953Z,14.93
2017-10-31T15:04:07.121Z,24.20
2017-10-31T15:06:35.319Z,13.02
2017-10-31T15:09:03.621Z,10.52
2017-10-31T15:11:31.848Z,12.93
2017-10-31T15:14:00.246Z,11.52
2017-10-31T15:16:28.417Z,16.10
2017-10-31T15:18:56.600Z,16.87
2017-10-31T15:21:24.783Z,14.70
2017-10-31T15:23:52.946Z,10.60
2017-10-31T15:26:21.254Z,13.05
2017-10-31T15:28:49.434Z,13.82
2017-10-31T15:31:17.653Z,18.27
2017-10-31T15:33:45.823Z,11.32
2017-10-31T15:36:14.022Z,9.75
2017-10-31T15:38:42.190Z,10.07
2017-10-31T15:41:10.490Z,10.15
2017-10-31T15:43:38.657Z,13.50
2017-10-31T15:46:06.843Z,9.50
2017-10-31T15:48:35.101Z,11.48
2017-10-31T15:51:03.294Z,17.35
2017-10-31T15:53:31.586Z,21.40
2017-10-31T15:56:00.561Z,10.63
2017-10-31T15:58:28.776Z,8.60
2017-10-31T16:00:57.728Z,12.43
2017-10-31T16:03:25.893Z,15.40
2017-10-31T16:05:54.121Z,9.90
2017-10-31T16:08:22.302Z,10.55
2017-10-31T16:10:50.628Z,12.00
2017-10-31T16:13:18.794Z,14.00
2017-10-31T16:15:46.960Z,12.77
2017-10-31T16:18:15.140Z,9.35
2017-10-31T16:20:43.328Z,18.98
2017-10-31T16:23:11.536Z,13.60
2017-10-31T16:25:40.484Z,11.25
2017-10-31T16:28:08.787Z,12.77
2017-10-31T16:30:37.717Z,14.32
2017-10-31T16:33:05.936Z,12.00
2017-10-31T16:35:34.083Z,8.40
2017-10-31T16:38:02.285Z,8.27
2017-10-31T16:40:30.501Z,18.10
2017-10-31T16:42:58.710Z,10.82
2017-10-31T16:45:26.920Z,10.63
2017-10-31T16:47:55.108Z,9.63
2017-10-31T16:50:30.823Z,8.68
2017-10-31T16:52:59.152Z,13.20
2017-10-31T16:55:27.325Z,10.48
2017-10-31T16:57:55.515Z,11.27
2017-10-31T17:00:23.709Z,14.63
2017-10-31T17:02:51.902Z,12.37
2017-10-31T17:05:20.212Z,12.77
2017-10-31T17:07:48.389Z,12.27
2017-10-31T17:10:17.361Z,15.07
2017-10-31T17:12:45.518Z,11.40
2017-10-31T17:15:13.713Z,18.05
2017-10-31T17:17:42.708Z,18.37
2017-10-31T17:20:11.648Z,14.93
2017-10-31T17:22:39.865Z,14.30
2017-10-31T17:25:08.032Z,10.57
2017-10-31T17:27:36.232Z,11.48
2017-10-31T17:30:05.200Z,15.23
2017-10-31T17:32:33.370Z,16.08
2017-10-31T17:35:01.599Z,16.27
2017-10-31T17:37:29.830Z,14.95
2017-10-31T17:39:58.153Z,15.05
2017-10-31T17:42:26.321Z,14.38
2017-10-31T17:44:55.290Z,18.30
2017-10-31T17:47:24.271Z,17.05
2017-10-31T17:49:53.222Z,18.33
2017-10-31T17:52:21.437Z,18.05
2017-10-31T17:54:50.374Z,19.83
2017-10-31T17:57:18.695Z,11.12
2017-10-31T17:59:47.691Z,14.63
2017-10-31T18:02:15.904Z,14.05
2017-10-31T18:04:44.122Z,20.27
2017-10-31T18:07:12.313Z,23.17
2017-10-31T18:09:40.491Z,24.75
2017-10-31T18:12:08.803Z,19.48
2017-10-31T18:14:37.027Z,21.75
2017-10-31T18:17:05.229Z,28.00
2017-10-31T18:19:34.165Z,49.65
2017-10-31T18:22:02.374Z,24.00
2017-10-31T18:24:30.559Z,22.48
2017-10-31T18:26:58.776Z,19.75
2017-10-31T18:29:26.961Z,21.60
2017-10-31T18:31:55.296Z,16.33
2017-10-31T18:34:24.241Z,18.95
2017-10-31T18:36:52.413Z,21.00
2017-10-31T18:39:20.623Z,17.90
2017-10-31T18:41:48.785Z,19.80
2017-10-31T18:44:17.005Z,17.37
2017-10-31T18:46:45.922Z,18.55
2017-10-31T18:49:14.079Z,17.67
2017-10-31T18:51:42.325Z,19.25
2017-10-31T18:54:11.254Z,15.43
2017-10-31T18:56:39.458Z,17.87
2017-10-31T18:59:07.639Z,17.87
2017-10-31T19:01:35.871Z,16.00
2017-10-31T19:04:04.018Z,18.40
2017-10-31T19:06:33.024Z,43.20
2017-10-31T19:09:01.210Z,22.52
2017-10-31T19:11:29.402Z,17.62
2017-10-31T19:13:57.628Z,15.98
2017-10-31T19:16:26.581Z,20.25
2017-10-31T19:18:54.807Z,15.70
2017-10-31T19:21:23.778Z,20.52
2017-10-31T19:23:52.061Z,19.35
2017-10-31T19:26:21.037Z,23.77
2017-10-31T19:28:49.214Z,19.83
2017-10-31T19:31:17.390Z,17.98
2017-10-31T19:33:45.569Z,15.98
2017-10-31T19:36:14.551Z,22.65
2017-10-31T19:38:42.751Z,20.15
2017-10-31T19:41:11.819Z,20.23
2017-10-31T19:43:40.032Z,50.20
2017-10-31T19:46:08.245Z,22.65
2017-10-31T19:48:36.416Z,33.70
2017-10-31T19:51:04.640Z,28.95
2017-10-31T19:53:33.582Z,40.45
2017-10-31T19:56:01.769Z,33.97
2017-10-31T19:58:30.073Z,33.28
2017-10-31T20:00:58.234Z,34.97
2017-10-31T20:03:26.392Z,36.10
2017-10-31T20:05:54.631Z,37.38
2017-10-31T20:08:22.805Z,34.25
2017-10-31T20:10:50.997Z,34.40
2017-10-31T20:13:19.205Z,35.47
2017-10-31T20:15:47.388Z,40.08
2017-10-31T20:18:15.709Z,34.70
2017-10-31T20:20:43.884Z,32.10
2017-10-31T20:23:12.085Z,33.40
2017-10-31T20:25:40.264Z,29.60
2017-10-31T20:28:08.477Z,30.02
2017-10-31T20:30:37.410Z,31.80
2017-10-31T20:33:06.407Z,41.95
2017-10-31T20:35:34.602Z,52.85
2017-10-31T20:38:02.800Z,32.30
2017-10-31T20:40:30.995Z,31.15
2017-10-31T20:42:59.172Z,24.80
2017-10-31T20:45:27.355Z,27.85
2017-10-31T20:47:55.520Z,26.67
2017-10-31T20:50:23.869Z,23.05
2017-10-31T20:52:52.893Z,24.48
2017-10-31T20:55:21.010Z,25.88
2017-10-31T20:57:49.199Z,25.00
2017-10-31T21:00:17.377Z,27.50
2017-10-31T21:02:45.574Z,32.85
2017-10-31T21:05:14.512Z,26.20
2017-10-31T21:07:42.695Z,26.25
2017-10-31T21:10:11.031Z,25.98
2017-10-31T21:12:39.201Z,24.20
2017-10-31T21:15:07.401Z,26.42
2017-10-31T21:17:35.560Z,27.48
2017-10-31T21:20:03.719Z,27.62
2017-10-31T21:22:31.918Z,26.37
2017-10-31T21:25:00.085Z,20.60
2017-10-31T21:27:28.384Z,25.67
2017-10-31T21:29:56.574Z,24.58
2017-10-31T21:32:24.783Z,21.10
2017-10-31T21:34:53.740Z,19.83
2017-10-31T21:37:21.934Z,23.40
2017-10-31T21:39:50.152Z,25.52
2017-10-31T21:42:18.318Z,32.78
2017-10-31T21:44:46.481Z,26.12
2017-10-31T21:47:14.777Z,27.00
2017-10-31T21:49:42.995Z,34.42
2017-10-31T21:52:11.182Z,24.12
2017-10-31T21:54:39.363Z,27.27
2017-10-31T21:57:08.310Z,25.20
2017-10-31T21:59:36.470Z,23.83
2017-10-31T22:02:05.532Z,26.95
2017-10-31T22:04:33.700Z,24.90
2017-10-31T22:07:02.672Z,27.48
2017-10-31T22:09:30.849Z,28.23
2017-10-31T22:11:59.043Z,27.98
2017-10-31T22:14:28.009Z,28.30
2017-10-31T22:16:56.186Z,23.50
2017-10-31T22:19:24.480Z,24.58
2017-10-31T22:21:53.428Z,30.02
2017-10-31T22:24:21.631Z,37.10
2017-10-31T22:26:49.805Z,35.97
2017-10-31T22:29:17.993Z,37.90
2017-10-31T22:31:46.974Z,36.05
2017-10-31T22:34:15.151Z,35.33
2017-10-31T22:36:43.461Z,32.50
2017-10-31T22:39:11.623Z,32.60
2017-10-31T22:41:39.803Z,39.55
2017-10-31T22:44:07.990Z,32.95
2017-10-31T22:46:36.174Z,33.28
2017-10-31T22:49:05.110Z,39.97
2017-10-31T22:51:33.311Z,36.15
2017-10-31T22:54:01.609Z,38.80
2017-10-31T22:56:29.838Z,30.88
2017-10-31T22:58:58.009Z,25.95
2017-10-31T23:01:26.206Z,32.40
2017-10-31T23:03:55.148Z,26.58
2017-10-31T23:06:23.331Z,26.85
2017-10-31T23:08:51.522Z,31.67
2017-10-31T23:11:27.790Z,24.77
2017-10-31T23:14:03.321Z,24.12
2017-10-31T23:16:38.950Z,20.05
2017-10-31T23:19:14.621Z,18.73
2017-10-31T23:21:50.706Z,20.77
2017-10-31T23:24:27.552Z,19.70
2017-10-31T23:27:02.993Z,21.60
2017-10-31T23:29:31.285Z,22.20
2017-10-31T23:31:59.461Z,25.85
2017-10-31T23:34:27.615Z,20.33
2017-10-31T23:36:55.827Z,22.83
2017-10-31T23:39:24.764Z,35.67
2017-10-31T23:41:52.975Z,33.88
2017-10-31T23:44:21.161Z,28.02
2017-10-31T23:46:49.470Z,25.98
2017-10-31T23:49:18.426Z,28.38
2017-10-31T23:51:47.368Z,20.73
2017-10-31T23:54:15.569Z,24.27
2017-10-31T23:56:43.797Z,27.00
2017-10-31T23:59:11.970Z,19.73
